»·PEaware :: WAT306 KASE-KGPI

WAT306 :: KASE-KGPI

FLIGHT INFORMATION

Flight Status: Arrived
Operator:
Walker Air Transport
More flights by this operator :: More flights under this callsign
Pilot: Ethan S. (29221)
Aircraft: SOCATA TBM-900
(TBM9)
More flights by this aircraft type
Origin: KASE Aspen-Pitkin Co/Sardy
United States
Destination: KGPI Glacier Park Intl
United States
More flights between these airports :: More routes between these airports
Route: PITKN4 EKR SKOTT
File this flight plan on PilotEdge
Remarks:
Altitude:
(Current/Filed)
30,000ft
Speed:
(Current/Filed)
320kts
Departed: 16-Oct-20 03:52 PM
Arrived: 16-Oct-20 06:31 PM
Distance/Time
Traveled:
631nm/2:38
Distance/Time
To Go:
Arrived

Flight Plot

Page will automatically refresh every two minutes.

Flight plan parsing failed; only flown route is shown


Map Options




Map Legend


Flown Route
Filed Route
Departure Airport
Arrival Airport
Navaid (VOR, NDB)
Fix

Horizontal Profiles

Position Reports

Time Latitude Longitude Heading Altitude Ground
Speed
16-Oct-20 15:43 39.223550 -106.867252 249 7837ft 0kts
16-Oct-20 15:44 39.223550 -106.867252 249 7837ft 0kts
16-Oct-20 15:45 39.223550 -106.867252 249 7837ft 0kts
16-Oct-20 15:46 39.223550 -106.867252 249 7837ft 0kts
16-Oct-20 15:47 39.223160 -106.867676 158 7837ft 9kts
16-Oct-20 15:48 39.218640 -106.865537 159 7837ft 20kts
16-Oct-20 15:49 39.214677 -106.863664 159 7837ft 12kts
16-Oct-20 15:50 39.212218 -106.862572 183 7837ft 0kts
16-Oct-20 15:51 39.214086 -106.864536 339 7837ft 46kts
16-Oct-20 15:52 39.242784 -106.877744 340 8709ft 139kts
16-Oct-20 15:53 39.280191 -106.887458 310 10590ft 133kts
16-Oct-20 15:54 39.298859 -106.929731 293 12337ft 140kts
16-Oct-20 15:55 39.316866 -106.975235 293 14433ft 144kts
16-Oct-20 15:56 39.335586 -107.022705 293 16373ft 151kts
16-Oct-20 15:57 39.355186 -107.072463 293 18446ft 155kts
16-Oct-20 15:58 39.386050 -107.113968 312 20507ft 162kts
16-Oct-20 15:59 39.420096 -107.154212 312 22541ft 165kts
16-Oct-20 16:00 39.454862 -107.195136 312 24521ft 169kts
16-Oct-20 16:01 39.490355 -107.236926 312 26410ft 172kts
16-Oct-20 16:02 39.526762 -107.279860 313 28273ft 176kts
16-Oct-20 16:03 39.563760 -107.323538 313 30012ft 179kts
16-Oct-20 16:04 39.608029 -107.375947 314 30271ft 243kts
16-Oct-20 16:05 39.662440 -107.440409 314 30240ft 272kts
16-Oct-20 16:06 39.720643 -107.509554 314 30229ft 284kts
16-Oct-20 16:07 39.780084 -107.580328 314 30227ft 287kts
16-Oct-20 16:08 39.839630 -107.651404 314 30232ft 286kts
16-Oct-20 16:09 39.898927 -107.722354 314 30245ft 286kts
16-Oct-20 16:10 39.958348 -107.793636 314 30247ft 286kts
16-Oct-20 16:11 40.017694 -107.864998 314 30246ft 286kts
16-Oct-20 16:12 40.078804 -107.932671 327 30239ft 290kts
16-Oct-20 16:13 40.151192 -107.983810 327 30247ft 290kts
16-Oct-20 16:14 40.223014 -108.034425 327 30247ft 290kts
16-Oct-20 16:15 40.295085 -108.085328 327 30247ft 290kts
16-Oct-20 16:16 40.367175 -108.136378 327 30246ft 290kts
16-Oct-20 16:17 40.438980 -108.187343 327 30246ft 290kts
16-Oct-20 16:18 40.510639 -108.238332 327 30246ft 290kts
16-Oct-20 16:19 40.582595 -108.289651 327 30244ft 290kts
16-Oct-20 16:20 40.654644 -108.341173 327 30244ft 290kts
16-Oct-20 16:21 40.726677 -108.392814 327 30242ft 290kts
16-Oct-20 16:22 40.798872 -108.444697 327 30242ft 290kts
16-Oct-20 16:23 40.871365 -108.496917 327 30232ft 290kts
16-Oct-20 16:24 40.943678 -108.549148 327 30219ft 290kts
16-Oct-20 16:25 41.015804 -108.601337 326 30216ft 287kts
16-Oct-20 16:26 41.086841 -108.652912 325 30213ft 280kts
16-Oct-20 16:27 41.155922 -108.703202 325 30223ft 273kts
16-Oct-20 16:28 41.223759 -108.752671 325 30223ft 270kts
16-Oct-20 16:29 41.291040 -108.801856 325 30222ft 269kts
16-Oct-20 16:30 41.358463 -108.851279 325 30222ft 268kts
16-Oct-20 16:31 41.424851 -108.900044 325 30221ft 268kts
16-Oct-20 16:32 41.491775 -108.949329 325 30202ft 270kts
16-Oct-20 16:33 41.558819 -108.998825 325 30200ft 271kts
16-Oct-20 16:34 41.626558 -109.048941 325 30200ft 273kts
16-Oct-20 16:35 41.694543 -109.099363 325 30199ft 274kts
16-Oct-20 16:36 41.762576 -109.149938 325 30199ft 276kts
16-Oct-20 16:37 41.830495 -109.200565 326 30197ft 277kts
16-Oct-20 16:38 41.899114 -109.251832 326 30197ft 278kts
16-Oct-20 16:39 41.967465 -109.303018 326 30197ft 278kts
16-Oct-20 16:40 42.035834 -109.354354 326 30196ft 278kts
16-Oct-20 16:41 42.103949 -109.405618 326 30194ft 278kts
16-Oct-20 16:42 42.172970 -109.457706 326 30186ft 279kts
16-Oct-20 16:43 42.241742 -109.509736 326 30179ft 279kts
16-Oct-20 16:45 42.310864 -109.562162 326 30178ft 279kts
16-Oct-20 16:46 42.379385 -109.614268 326 30173ft 279kts
16-Oct-20 16:47 42.447972 -109.666553 325 30176ft 279kts
16-Oct-20 16:48 42.516935 -109.719251 325 30179ft 279kts
16-Oct-20 16:49 42.585622 -109.771883 325 30184ft 279kts
16-Oct-20 16:50 42.654459 -109.824754 325 30182ft 279kts
16-Oct-20 16:51 42.722962 -109.877506 325 30174ft 279kts
16-Oct-20 16:52 42.791258 -109.930229 325 30173ft 279kts
16-Oct-20 16:53 42.859604 -109.983137 325 30178ft 279kts
16-Oct-20 16:54 42.927652 -110.035867 324 30182ft 277kts
16-Oct-20 16:55 42.994881 -110.088161 322 30178ft 272kts
16-Oct-20 16:56 43.060384 -110.139304 321 30166ft 266kts
16-Oct-20 16:57 43.125115 -110.189934 320 30171ft 262kts
16-Oct-20 16:58 43.189675 -110.240568 320 30169ft 262kts
16-Oct-20 16:59 43.253855 -110.290989 320 30142ft 262kts
16-Oct-20 17:00 43.318364 -110.341818 320 30134ft 261kts
16-Oct-20 17:01 43.382548 -110.392482 320 30140ft 261kts
16-Oct-20 17:01 43.435861 -110.434694 320 30151ft 260kts
16-Oct-20 17:03 43.510781 -110.494101 320 30145ft 260kts
16-Oct-20 17:03 43.564418 -110.536777 320 30146ft 260kts
16-Oct-20 17:04 43.627901 -110.587387 320 30146ft 260kts
16-Oct-20 17:05 43.691558 -110.638265 320 30144ft 259kts
16-Oct-20 17:06 43.755450 -110.689468 320 30164ft 260kts
16-Oct-20 17:07 43.819812 -110.741127 320 30173ft 261kts
16-Oct-20 17:08 43.883601 -110.792522 320 30190ft 261kts
16-Oct-20 17:09 43.947655 -110.844209 320 30200ft 261kts
16-Oct-20 17:10 44.011404 -110.895804 320 30209ft 260kts
16-Oct-20 17:11 44.075234 -110.947579 320 30209ft 261kts
16-Oct-20 17:12 44.139630 -110.999953 320 30213ft 262kts
16-Oct-20 17:13 44.203794 -111.052268 320 30187ft 264kts
16-Oct-20 17:14 44.269086 -111.105649 320 30141ft 265kts
16-Oct-20 17:15 44.334757 -111.159463 320 30101ft 266kts
16-Oct-20 17:16 44.400505 -111.213505 320 30097ft 265kts
16-Oct-20 17:17 44.465957 -111.267436 320 30097ft 265kts
16-Oct-20 17:18 44.531100 -111.321247 320 30097ft 264kts
16-Oct-20 17:19 44.596114 -111.375088 320 30094ft 264kts
16-Oct-20 17:20 44.661260 -111.429193 320 30093ft 264kts
16-Oct-20 17:21 44.726189 -111.483268 320 30080ft 264kts
16-Oct-20 17:22 44.791139 -111.537483 320 30054ft 264kts
16-Oct-20 17:23 44.855941 -111.591718 320 30034ft 264kts
16-Oct-20 17:24 44.920485 -111.645916 320 30029ft 263kts
16-Oct-20 17:25 44.985693 -111.700768 320 30041ft 263kts
16-Oct-20 17:26 45.049289 -111.754403 319 30035ft 255kts
16-Oct-20 17:27 45.109917 -111.805712 320 30041ft 243kts
16-Oct-20 17:28 45.168653 -111.855480 320 30038ft 235kts
16-Oct-20 17:29 45.226086 -111.904347 320 30041ft 232kts
16-Oct-20 17:30 45.282926 -111.952770 320 30040ft 231kts
16-Oct-20 17:31 45.339207 -112.000851 320 30041ft 230kts
16-Oct-20 17:32 45.395572 -112.049039 319 30017ft 230kts
16-Oct-20 17:33 45.451780 -112.097314 319 30020ft 230kts
16-Oct-20 17:34 45.507990 -112.145671 319 30008ft 230kts
16-Oct-20 17:35 45.564204 -112.194112 319 30000ft 230kts
16-Oct-20 17:36 45.620148 -112.242431 318 29989ft 230kts
16-Oct-20 17:37 45.676112 -112.290939 319 29978ft 229kts
16-Oct-20 17:38 45.731960 -112.339425 319 29970ft 229kts
16-Oct-20 17:39 45.787508 -112.387785 319 29971ft 228kts
16-Oct-20 17:40 45.842966 -112.436178 319 29968ft 228kts
16-Oct-20 17:41 45.897612 -112.483916 319 29968ft 228kts
16-Oct-20 17:42 45.952780 -112.532328 319 29968ft 228kts
16-Oct-20 17:43 46.008083 -112.580839 319 29966ft 227kts
16-Oct-20 17:44 46.063180 -112.629444 319 29967ft 226kts
16-Oct-20 17:45 46.118430 -112.678161 318 29989ft 228kts
16-Oct-20 17:46 46.174403 -112.727742 319 29994ft 230kts
16-Oct-20 17:47 46.230990 -112.777896 319 29988ft 231kts
16-Oct-20 17:48 46.286545 -112.827300 319 29987ft 231kts
16-Oct-20 17:49 46.342765 -112.877437 319 29983ft 230kts
16-Oct-20 17:50 46.398964 -112.927611 318 29983ft 230kts
16-Oct-20 17:51 46.453144 -112.976115 319 29982ft 230kts
16-Oct-20 17:52 46.508585 -113.025896 319 29978ft 229kts
16-Oct-20 17:53 46.564345 -113.076157 320 29974ft 230kts
16-Oct-20 17:54 46.619778 -113.126102 319 29967ft 229kts
16-Oct-20 17:55 46.674940 -113.175971 319 29953ft 229kts
16-Oct-20 17:56 46.729494 -113.225444 319 29946ft 229kts
16-Oct-20 17:57 46.784485 -113.275455 319 29937ft 228kts
16-Oct-20 17:58 46.839579 -113.325607 319 29939ft 228kts
16-Oct-20 17:59 46.897150 -113.378308 319 28830ft 255kts
16-Oct-20 18:00 46.960814 -113.436527 318 27222ft 267kts
16-Oct-20 18:01 47.023319 -113.493838 317 25598ft 250kts
16-Oct-20 18:02 47.082550 -113.548455 317 23977ft 241kts
16-Oct-20 18:03 47.136031 -113.597751 316 23930ft 209kts
16-Oct-20 18:04 47.190892 -113.648698 318 21966ft 243kts
16-Oct-20 18:05 47.250464 -113.703941 318 19979ft 254kts
16-Oct-20 18:06 47.312133 -113.761362 318 17960ft 259kts
16-Oct-20 18:07 47.374146 -113.819215 319 15942ft 257kts
16-Oct-20 18:08 47.430872 -113.872177 318 15842ft 224kts
16-Oct-20 18:09 47.483273 -113.921344 318 15845ft 216kts
16-Oct-20 18:10 47.534517 -113.969513 317 15842ft 214kts
16-Oct-20 18:11 47.585537 -114.017599 317 15828ft 214kts
16-Oct-20 18:12 47.636846 -114.066049 317 15812ft 214kts
16-Oct-20 18:13 47.687999 -114.114458 317 15797ft 214kts
16-Oct-20 18:14 47.737685 -114.172577 309 14698ft 228kts
16-Oct-20 18:15 47.783721 -114.238347 309 13626ft 221kts
16-Oct-20 18:16 47.828990 -114.303281 309 12625ft 220kts
16-Oct-20 18:17 47.874224 -114.368373 310 11622ft 223kts
16-Oct-20 18:18 47.919097 -114.437732 310 10082ft 235kts
16-Oct-20 18:19 47.960255 -114.508316 310 8880ft 193kts
16-Oct-20 18:20 48.000117 -114.542320 343 8879ft 152kts
16-Oct-20 18:21 48.047006 -114.535604 27 8894ft 216kts
16-Oct-20 18:22 48.096975 -114.478647 27 7711ft 214kts
16-Oct-20 18:23 48.135570 -114.437967 24 6803ft 121kts
16-Oct-20 18:24 48.162652 -114.409736 26 6188ft 115kts
16-Oct-20 18:25 48.190256 -114.380912 28 5550ft 118kts
16-Oct-20 18:26 48.218178 -114.351777 30 4899ft 119kts
16-Oct-20 18:27 48.245662 -114.323073 31 4332ft 105kts
16-Oct-20 18:28 48.269338 -114.298461 33 3658ft 102kts
16-Oct-20 18:29 48.294123 -114.272599 34 3138ft 105kts
16-Oct-20 18:30 48.306351 -114.258808 128 2965ft 15kts
16-Oct-20 18:31 48.309588 -114.254356 34 2966ft 15kts
16-Oct-20 18:32 48.309852 -114.252569 1 2966ft 0kts
16-Oct-20 18:33 48.309994 -114.252563 2 2966ft 0kts
16-Oct-20 18:34 48.309994 -114.252563 2 2966ft 0kts

Navigation Log

Ident Type
Flight plan parsing failed, navigation log unavailable